Time;durP1;ratioP1;P1;durP2;ratioP2;P2;SDS_P1;SDS_P2;PMS_P1;PMS_P2;Temp;Humidity;BMP_temperature;BMP_pressure;BME280_temperature;BME280_humidity;BME280_pressure;Samples;Min_cycle;Max_cycle;Signal;HPM_P1;HPM_P2
2021/04/22 00:00:30;;;;;;;8.98;1.73;;;20.60;33.20;;;;;;5094754;28;20028;-66
2021/04/22 00:02:55;;;;;;;6.20;1.98;;;20.60;33.20;;;;;;5094355;28;20028;-65
2021/04/22 00:05:34;;;;;;;7.60;2.10;;;20.60;33.20;;;;;;5094746;28;20031;-65
2021/04/22 00:08:00;;;;;;;5.85;1.60;;;20.50;33.20;;;;;;5094899;28;20067;-65
2021/04/22 00:10:34;;;;;;;6.65;1.63;;;20.50;33.20;;;;;;5094513;28;20035;-66
2021/04/22 00:12:59;;;;;;;7.95;1.92;;;20.60;33.20;;;;;;5094629;28;20055;-65
2021/04/22 00:15:27;;;;;;;6.32;1.80;;;20.50;33.20;;;;;;5094160;28;20089;-65
2021/04/22 00:17:55;;;;;;;7.07;2.05;;;20.60;33.20;;;;;;5095352;28;20023;-67
2021/04/22 00:20:21;;;;;;;8.15;2.00;;;20.50;33.20;;;;;;5094193;28;20039;-67
2021/04/22 00:22:46;;;;;;;7.75;1.90;;;20.50;33.20;;;;;;5094358;28;20048;-68
2021/04/22 00:25:13;;;;;;;6.35;2.17;;;20.50;33.20;;;;;;5094274;28;20037;-67
2021/04/22 00:27:38;;;;;;;8.15;2.03;;;20.50;33.10;;;;;;5098974;28;20024;-66
2021/04/22 00:30:07;;;;;;;7.03;1.70;;;20.50;33.10;;;;;;5097599;28;20075;-67
2021/04/22 00:32:33;;;;;;;6.05;1.65;;;20.50;33.20;;;;;;5094563;28;20024;-66
2021/04/22 00:34:58;;;;;;;7.85;2.25;;;20.50;33.20;;;;;;5095218;28;20535;-66
2021/04/22 00:37:24;;;;;;;9.80;2.25;;;20.50;33.20;;;;;;5094717;28;20016;-66
2021/04/22 00:39:49;;;;;;;7.60;1.83;;;20.50;33.20;;;;;;5094302;28;20076;-66
2021/04/22 00:42:15;;;;;;;5.68;2.15;;;20.50;33.20;;;;;;5094640;28;20024;-65
2021/04/22 00:44:40;;;;;;;5.78;1.77;;;20.50;33.20;;;;;;5094173;28;20024;-66
2021/04/22 00:47:08;;;;;;;6.05;2.00;;;20.50;33.10;;;;;;5098863;28;20024;-66
2021/04/22 00:49:34;;;;;;;7.68;2.50;;;20.50;33.10;;;;;;5103890;28;20031;-66
2021/04/22 00:52:00;;;;;;;9.00;2.75;;;20.50;33.10;;;;;;5103475;28;20028;-66
2021/04/22 00:54:26;;;;;;;6.30;1.60;;;20.50;33.10;;;;;;5104079;28;20035;-66
2021/04/22 00:56:52;;;;;;;8.93;2.20;;;20.50;33.10;;;;;;5100440;28;20048;-65
2021/04/22 00:59:18;;;;;;;7.88;1.90;;;20.50;33.10;;;;;;5094424;28;20020;-66
2021/04/22 01:01:44;;;;;;;6.00;2.10;;;20.50;33.20;;;;;;5094119;28;20026;-65
2021/04/22 01:04:09;;;;;;;8.65;2.10;;;20.50;33.10;;;;;;5093939;28;20472;-65
2021/04/22 01:06:35;;;;;;;6.55;2.33;;;20.50;33.10;;;;;;5093767;28;20036;-66
2021/04/22 01:09:03;;;;;;;7.25;1.88;;;20.50;33.10;;;;;;5092755;28;20036;-66
2021/04/22 01:11:30;;;;;;;6.15;1.70;;;20.50;33.10;;;;;;5093932;28;20034;-66
2021/04/22 01:13:57;;;;;;;5.53;2.08;;;20.50;33.10;;;;;;5094055;28;20028;-66
2021/04/22 01:16:22;;;;;;;5.55;1.90;;;20.50;33.20;;;;;;5093947;28;20024;-66
2021/04/22 01:18:48;;;;;;;6.18;2.00;;;20.50;33.10;;;;;;5094210;28;20043;-66
2021/04/22 01:21:24;;;;;;;8.38;2.50;;;20.50;33.10;;;;;;5100589;28;20484;-66
2021/04/22 01:23:50;;;;;;;6.68;2.20;;;20.50;33.10;;;;;;5102330;28;20089;-66
2021/04/22 01:26:19;;;;;;;6.65;2.30;;;20.50;33.10;;;;;;5105985;28;20057;-66
2021/04/22 01:28:44;;;;;;;8.63;2.60;;;20.50;33.10;;;;;;5108296;28;20020;-66
2021/04/22 01:31:10;;;;;;;6.82;2.40;;;20.50;33.10;;;;;;5108413;28;20040;-65
2021/04/22 01:33:35;;;;;;;6.95;2.13;;;20.50;33.10;;;;;;5107992;28;20064;-66
2021/04/22 01:36:01;;;;;;;5.95;1.95;;;20.50;33.10;;;;;;5102184;28;20027;-65
2021/04/22 01:38:28;;;;;;;9.63;2.13;;;20.40;33.00;;;;;;5097487;28;20035;-65
2021/04/22 01:40:54;;;;;;;11.00;2.78;;;20.50;33.00;;;;;;5098055;28;20020;-65
2021/04/22 01:43:19;;;;;;;6.68;2.25;;;20.50;33.00;;;;;;5097517;28;20157;-65
2021/04/22 01:45:45;;;;;;;7.57;2.10;;;20.40;33.10;;;;;;5097381;28;20068;-65
2021/04/22 01:48:11;;;;;;;6.70;2.22;;;20.50;33.00;;;;;;5097119;28;20028;-65
2021/04/22 01:50:38;;;;;;;8.73;2.00;;;20.40;33.00;;;;;;5095986;28;20028;-65
2021/04/22 01:53:05;;;;;;;5.97;2.13;;;20.40;33.00;;;;;;5097674;28;20028;-65
2021/04/22 01:55:37;;;;;;;7.63;2.30;;;20.40;33.00;;;;;;5096095;28;20040;-65
2021/04/22 01:58:04;;;;;;;5.88;2.17;;;20.40;33.00;;;;;;5097167;28;20028;-66
2021/04/22 02:00:41;;;;;;;8.70;2.40;;;20.40;33.00;;;;;;5097373;28;20460;-66
2021/04/22 02:03:08;;;;;;;10.40;2.35;;;20.40;33.00;;;;;;5097090;28;20106;-66
2021/04/22 02:05:35;;;;;;;7.32;2.28;;;20.40;33.00;;;;;;5096989;28;20067;-66
2021/04/22 02:08:01;;;;;;;7.82;2.35;;;20.40;33.00;;;;;;5097283;28;20066;-66
2021/04/22 02:10:26;;;;;;;6.82;2.22;;;20.40;33.00;;;;;;5096836;28;20020;-67
2021/04/22 02:12:52;;;;;;;8.60;2.55;;;20.40;33.00;;;;;;5096612;28;20107;-66
2021/04/22 02:15:24;;;;;;;8.77;2.80;;;20.40;33.00;;;;;;5096982;28;20094;-66
2021/04/22 02:17:50;;;;;;;7.90;2.45;;;20.40;33.00;;;;;;5096519;28;20111;-66
2021/04/22 02:20:17;;;;;;;7.88;2.25;;;20.40;33.00;;;;;;5096580;28;20510;-66
2021/04/22 02:22:43;;;;;;;7.03;2.20;;;20.40;33.00;;;;;;5096444;28;20063;-66
2021/04/22 02:25:12;;;;;;;8.70;2.35;;;20.40;33.00;;;;;;5096349;28;20081;-66
2021/04/22 02:27:39;;;;;;;9.02;2.55;;;20.40;33.00;;;;;;5096332;28;20059;-66
2021/04/22 02:30:14;;;;;;;10.32;2.85;;;20.40;33.00;;;;;;5096722;28;20028;-66
2021/04/22 02:32:40;;;;;;;7.32;2.72;;;20.40;33.00;;;;;;5096544;28;20045;-65
2021/04/22 02:35:08;;;;;;;10.73;2.97;;;20.40;32.90;;;;;;5096448;28;20107;-66
2021/04/22 02:37:34;;;;;;;7.03;2.45;;;20.40;33.00;;;;;;5095626;28;20410;-66
2021/04/22 02:40:00;;;;;;;6.18;2.45;;;20.40;33.00;;;;;;5096308;28;20085;-66
2021/04/22 02:42:25;;;;;;;6.63;2.33;;;20.40;32.90;;;;;;5096357;28;20131;-66
2021/04/22 02:44:51;;;;;;;6.55;2.35;;;20.40;32.90;;;;;;5096298;28;20024;-66
2021/04/22 02:47:17;;;;;;;8.10;2.60;;;20.30;32.90;;;;;;5096339;28;20034;-66
2021/04/22 02:49:42;;;;;;;8.65;2.58;;;20.40;33.00;;;;;;5098231;28;20047;-66
2021/04/22 02:52:08;;;;;;;9.00;2.65;;;20.30;33.00;;;;;;5097322;28;20032;-66
2021/04/22 02:54:34;;;;;;;9.90;2.65;;;20.40;32.90;;;;;;5095957;28;20012;-66
2021/04/22 02:57:00;;;;;;;9.02;2.50;;;20.30;32.90;;;;;;5095860;28;20522;-66
2021/04/22 02:59:25;;;;;;;8.45;2.75;;;20.30;32.90;;;;;;5095964;28;20032;-66
2021/04/22 03:01:51;;;;;;;8.65;2.80;;;20.40;32.90;;;;;;5098502;28;20024;-66
2021/04/22 03:04:17;;;;;;;7.50;2.47;;;20.40;32.80;;;;;;5099075;28;20024;-66
2021/04/22 03:06:42;;;;;;;7.05;2.38;;;20.30;32.90;;;;;;5095931;28;20032;-66
2021/04/22 03:09:08;;;;;;;6.95;3.00;;;20.30;32.80;;;;;;5096098;28;20357;-66
2021/04/22 03:11:33;;;;;;;10.50;3.00;;;20.30;32.90;;;;;;5095569;28;20028;-66
2021/04/22 03:13:59;;;;;;;7.75;2.63;;;20.30;32.80;;;;;;5096517;28;20020;-66
2021/04/22 03:16:24;;;;;;;9.05;2.72;;;20.30;32.90;;;;;;5095507;28;20028;-66
2021/04/22 03:18:50;;;;;;;8.13;2.72;;;20.30;32.80;;;;;;5095653;28;20118;-66
2021/04/22 03:21:15;;;;;;;6.10;2.22;;;20.30;32.90;;;;;;5095666;28;20020;-66
2021/04/22 03:23:41;;;;;;;7.13;2.40;;;20.30;32.90;;;;;;5095954;28;20041;-66
2021/04/22 03:26:06;;;;;;;5.65;2.15;;;20.30;32.90;;;;;;5095293;28;20036;-66
2021/04/22 03:28:32;;;;;;;8.02;2.65;;;20.30;32.90;;;;;;5095562;28;20028;-66
2021/04/22 03:30:57;;;;;;;7.75;2.60;;;20.30;32.90;;;;;;5095314;28;20030;-67
2021/04/22 03:33:23;;;;;;;5.53;2.42;;;20.30;32.90;;;;;;5094834;28;20521;-66
2021/04/22 03:35:50;;;;;;;8.25;2.95;;;20.30;32.80;;;;;;5093780;28;20032;-66
2021/04/22 03:38:16;;;;;;;7.80;2.53;;;20.20;32.90;;;;;;5094279;28;20016;-66
2021/04/22 03:40:42;;;;;;;7.18;2.42;;;20.30;32.80;;;;;;5095194;28;20035;-66
2021/04/22 03:43:07;;;;;;;8.82;2.95;;;20.20;32.80;;;;;;5095166;28;20091;-66
2021/04/22 03:45:33;;;;;;;7.45;2.55;;;20.20;32.80;;;;;;5093741;28;20043;-66
2021/04/22 03:47:58;;;;;;;8.13;2.75;;;20.30;32.80;;;;;;5095145;28;20024;-67
2021/04/22 03:50:24;;;;;;;7.50;3.13;;;20.30;32.80;;;;;;5093104;28;20084;-67
2021/04/22 03:52:49;;;;;;;7.93;2.50;;;20.20;32.80;;;;;;5095326;28;20043;-66
2021/04/22 03:55:16;;;;;;;7.75;2.92;;;20.30;32.80;;;;;;5095201;28;20046;-66
2021/04/22 03:57:42;;;;;;;9.60;2.72;;;20.20;32.80;;;;;;5095294;28;20020;-66
2021/04/22 04:00:11;;;;;;;8.95;2.60;;;20.20;32.80;;;;;;5094981;28;20031;-66
2021/04/22 04:02:37;;;;;;;7.35;2.10;;;20.20;32.80;;;;;;5095447;28;20020;-66
2021/04/22 04:05:03;;;;;;;8.60;2.60;;;20.20;32.80;;;;;;5095270;28;20356;-66
2021/04/22 04:07:29;;;;;;;7.72;2.60;;;20.20;32.80;;;;;;5095681;28;20058;-66
2021/04/22 04:09:54;;;;;;;7.45;2.72;;;20.20;32.80;;;;;;5099362;28;20020;-66
2021/04/22 04:12:20;;;;;;;8.98;2.33;;;20.20;32.80;;;;;;5104556;28;20463;-67
2021/04/22 04:14:45;;;;;;;9.70;2.92;;;20.20;32.80;;;;;;5100755;28;20024;-67
2021/04/22 04:17:11;;;;;;;6.10;2.10;;;20.30;32.70;;;;;;5101687;28;20031;-67
2021/04/22 04:19:36;;;;;;;7.55;2.63;;;20.30;32.80;;;;;;5097502;28;20020;-66
2021/04/22 04:22:02;;;;;;;8.82;2.70;;;20.30;32.70;;;;;;5094042;28;20043;-66
2021/04/22 04:24:28;;;;;;;8.98;2.60;;;20.40;32.70;;;;;;5094304;28;20032;-67
2021/04/22 04:26:53;;;;;;;8.43;2.92;;;20.30;32.70;;;;;;5092747;28;20043;-66
2021/04/22 04:29:19;;;;;;;6.95;2.30;;;20.40;32.60;;;;;;5093776;28;20105;-66
2021/04/22 04:31:45;;;;;;;8.88;2.67;;;20.40;32.60;;;;;;5094535;28;20067;-66
2021/04/22 04:34:10;;;;;;;8.90;2.47;;;20.40;32.60;;;;;;5094783;28;20020;-66
2021/04/22 04:36:36;;;;;;;7.55;2.67;;;20.50;32.60;;;;;;5094489;28;20028;-66
2021/04/22 04:39:01;;;;;;;7.47;2.45;;;20.50;32.60;;;;;;5093862;28;20019;-66
2021/04/22 04:41:27;;;;;;;7.63;2.33;;;20.50;32.60;;;;;;5093972;28;20032;-66
2021/04/22 04:43:53;;;;;;;6.35;2.55;;;20.50;32.50;;;;;;5094006;28;20016;-66
2021/04/22 04:46:19;;;;;;;7.90;2.97;;;20.50;32.50;;;;;;5093775;28;20071;-66
2021/04/22 04:48:45;;;;;;;9.95;3.30;;;20.50;32.50;;;;;;5093532;28;20024;-66
2021/04/22 04:51:11;;;;;;;8.00;2.85;;;20.50;32.50;;;;;;5093693;28;20503;-66
2021/04/22 04:53:37;;;;;;;7.00;2.67;;;20.50;32.50;;;;;;5094043;28;20077;-66
2021/04/22 04:56:03;;;;;;;7.13;2.67;;;20.50;32.50;;;;;;5094009;28;20391;-66
2021/04/22 04:58:28;;;;;;;7.53;2.50;;;20.50;32.50;;;;;;5093944;28;20034;-66
2021/04/22 05:00:53;;;;;;;9.15;3.15;;;20.50;32.50;;;;;;5093682;28;20503;-66
2021/04/22 05:03:19;;;;;;;8.70;3.00;;;20.50;32.50;;;;;;5093800;28;20032;-66
2021/04/22 05:05:44;;;;;;;7.28;2.67;;;20.50;32.50;;;;;;5093149;28;20105;-66
2021/04/22 05:08:10;;;;;;;8.88;2.65;;;20.50;32.50;;;;;;5093435;28;20025;-66
2021/04/22 05:10:36;;;;;;;7.13;2.53;;;20.50;32.40;;;;;;5093586;28;20504;-66
2021/04/22 05:13:02;;;;;;;7.95;2.30;;;20.60;32.50;;;;;;5093514;28;20050;-66
2021/04/22 05:15:27;;;;;;;6.47;2.25;;;20.60;32.50;;;;;;5093542;28;20032;-66
2021/04/22 05:17:53;;;;;;;7.75;2.70;;;20.60;32.40;;;;;;5093442;28;20488;-66
2021/04/22 05:20:19;;;;;;;7.22;2.70;;;20.60;32.40;;;;;;5093147;28;20032;-66
2021/04/22 05:22:44;;;;;;;9.70;2.63;;;20.60;32.40;;;;;;5093277;28;20052;-66
2021/04/22 05:25:10;;;;;;;9.05;3.00;;;20.60;32.50;;;;;;5093115;28;20125;-66
2021/04/22 05:27:36;;;;;;;6.30;2.30;;;20.60;32.50;;;;;;5093294;28;20032;-66
2021/04/22 05:30:03;;;;;;;10.00;2.72;;;20.60;32.50;;;;;;5093443;28;20020;-66
2021/04/22 05:32:28;;;;;;;7.13;2.75;;;20.60;32.50;;;;;;5093639;28;20031;-66
2021/04/22 05:34:54;;;;;;;9.18;3.38;;;20.60;32.50;;;;;;5093283;28;20036;-66
2021/04/22 05:37:19;;;;;;;9.63;2.92;;;20.60;32.40;;;;;;5093343;28;20024;-66
2021/04/22 05:39:45;;;;;;;8.20;2.75;;;20.70;32.40;;;;;;5092013;28;20030;-66
2021/04/22 05:42:11;;;;;;;8.05;2.53;;;20.60;32.50;;;;;;5093443;28;20020;-66
2021/04/22 05:44:37;;;;;;;8.65;3.03;;;20.60;32.40;;;;;;5092607;28;20483;-66
2021/04/22 05:47:02;;;;;;;7.93;3.00;;;20.60;32.30;;;;;;5093108;28;20089;-66
2021/04/22 05:49:28;;;;;;;7.15;2.55;;;20.60;32.40;;;;;;5093040;28;20048;-66
2021/04/22 05:51:54;;;;;;;7.95;2.38;;;20.70;32.40;;;;;;5093115;28;20024;-65
2021/04/22 05:54:20;;;;;;;7.47;2.70;;;20.70;32.30;;;;;;5093398;28;20024;-66
2021/04/22 05:56:46;;;;;;;9.10;2.63;;;20.70;32.40;;;;;;5093150;28;20062;-66
2021/04/22 05:59:11;;;;;;;6.50;2.30;;;20.70;32.40;;;;;;5093611;28;20424;-66
2021/04/22 06:01:37;;;;;;;7.50;2.60;;;20.70;32.40;;;;;;5093745;28;20024;-66
2021/04/22 06:04:03;;;;;;;7.00;2.28;;;20.60;32.30;;;;;;5093701;28;20028;-66
2021/04/22 06:06:29;;;;;;;8.57;2.55;;;20.70;32.30;;;;;;5093355;28;20032;-66
2021/04/22 06:08:54;;;;;;;9.40;2.80;;;20.70;32.30;;;;;;5092869;28;20031;-66
2021/04/22 06:11:20;;;;;;;10.35;2.70;;;20.70;32.20;;;;;;5093219;28;20375;-66
2021/04/22 06:13:46;;;;;;;9.65;3.00;;;20.70;32.30;;;;;;5096075;28;20103;-66
2021/04/22 06:16:12;;;;;;;8.10;2.67;;;20.70;32.40;;;;;;5096362;28;20067;-66
2021/04/22 06:18:38;;;;;;;10.20;3.00;;;20.70;32.30;;;;;;5096618;28;20032;-66
2021/04/22 06:21:03;;;;;;;8.63;2.40;;;20.70;32.20;;;;;;5096242;28;20074;-66
2021/04/22 06:23:29;;;;;;;6.38;2.67;;;20.70;32.30;;;;;;5096158;28;20515;-66
2021/04/22 06:25:55;;;;;;;7.18;2.85;;;20.70;32.20;;;;;;5096304;28;20036;-66
2021/04/22 06:28:20;;;;;;;10.10;2.95;;;20.80;32.30;;;;;;5094880;28;20050;-65
2021/04/22 06:30:46;;;;;;;7.50;2.65;;;20.80;32.20;;;;;;5096246;28;20516;-66
2021/04/22 06:33:11;;;;;;;9.10;2.40;;;20.80;32.20;;;;;;5094849;28;20491;-66
2021/04/22 06:35:37;;;;;;;7.07;2.17;;;20.70;32.30;;;;;;5096224;28;20077;-66
2021/04/22 06:38:04;;;;;;;8.00;2.63;;;20.80;32.30;;;;;;5096602;28;20064;-66
2021/04/22 06:40:29;;;;;;;6.65;2.50;;;20.70;32.30;;;;;;5096231;28;20024;-66
2021/04/22 06:42:55;;;;;;;8.40;2.60;;;20.80;32.30;;;;;;5096063;28;20031;-66
2021/04/22 06:45:21;;;;;;;8.73;3.38;;;20.80;32.30;;;;;;5096180;28;20032;-66
2021/04/22 06:47:47;;;;;;;7.68;2.75;;;20.70;32.30;;;;;;5095787;28;20028;-65
2021/04/22 06:50:15;;;;;;;7.88;2.45;;;20.80;32.30;;;;;;5095950;28;20490;-66
2021/04/22 06:52:41;;;;;;;10.55;2.55;;;20.80;32.30;;;;;;5094487;28;20050;-66
2021/04/22 06:55:14;;;;;;;7.07;2.75;;;20.80;32.30;;;;;;5096025;28;20020;-66
2021/04/22 06:57:40;;;;;;;6.43;2.08;;;20.80;32.30;;;;;;5095577;28;20020;-66
2021/04/22 07:00:09;;;;;;;9.57;2.60;;;20.80;32.30;;;;;;5085728;28;20059;-65
2021/04/22 07:02:34;;;;;;;7.45;2.83;;;20.80;32.30;;;;;;5082125;28;20028;-66
2021/04/22 07:05:00;;;;;;;7.88;2.28;;;20.90;32.30;;;;;;5094514;28;20101;-66
2021/04/22 07:07:25;;;;;;;6.15;2.03;;;20.90;32.20;;;;;;5094197;28;20020;-66
2021/04/22 07:09:51;;;;;;;8.73;2.75;;;20.90;32.20;;;;;;5093970;28;20026;-64
2021/04/22 07:12:16;;;;;;;5.72;2.40;;;20.90;32.10;;;;;;5093090;28;20425;-65
2021/04/22 07:14:42;;;;;;;8.70;2.65;;;21.00;32.10;;;;;;5094157;28;20472;-65
2021/04/22 07:17:07;;;;;;;8.00;2.17;;;21.00;32.20;;;;;;5094299;28;20068;-65
2021/04/22 07:19:33;;;;;;;7.05;2.53;;;21.00;32.10;;;;;;5068887;28;20025;-65
2021/04/22 07:21:59;;;;;;;9.32;2.28;;;21.00;32.20;;;;;;5052755;28;20044;-66
2021/04/22 07:24:24;;;;;;;6.35;2.05;;;21.00;32.20;;;;;;5069727;28;20048;-68
2021/04/22 07:26:50;;;;;;;9.07;2.40;;;21.00;32.20;;;;;;5071654;28;20502;-66
2021/04/22 07:29:15;;;;;;;8.52;2.60;;;21.00;32.20;;;;;;5053523;28;20479;-66
2021/04/22 07:31:41;;;;;;;9.75;2.30;;;21.00;32.10;;;;;;5052553;28;20126;-64
2021/04/22 07:34:07;;;;;;;7.25;2.10;;;21.00;32.10;;;;;;5053159;28;20024;-63
2021/04/22 07:36:32;;;;;;;9.68;2.88;;;21.00;32.20;;;;;;5053803;28;20108;-67
2021/04/22 07:38:59;;;;;;;6.07;2.15;;;21.10;32.00;;;;;;5053685;28;20029;-66
2021/04/22 07:41:25;;;;;;;8.43;2.40;;;21.10;32.20;;;;;;5052184;28;20041;-68
2021/04/22 07:43:50;;;;;;;7.05;2.42;;;21.10;32.10;;;;;;5062886;28;20032;-67
2021/04/22 07:46:16;;;;;;;9.85;2.53;;;21.10;32.20;;;;;;5072862;28;20468;-67
2021/04/22 07:48:41;;;;;;;7.47;2.50;;;21.00;32.20;;;;;;5072983;28;20021;-68
2021/04/22 07:51:07;;;;;;;5.30;1.83;;;21.00;32.10;;;;;;5071207;28;20062;-67
2021/04/22 07:53:33;;;;;;;9.23;2.45;;;21.10;32.20;;;;;;5072367;28;20025;-67
2021/04/22 07:55:59;;;;;;;8.70;2.50;;;21.10;32.00;;;;;;5073324;28;20107;-70
2021/04/22 07:58:25;;;;;;;6.72;2.00;;;21.10;32.20;;;;;;5072933;28;20112;-70
2021/04/22 08:00:51;;;;;;;7.88;2.15;;;21.10;32.20;;;;;;5071042;28;20052;-70
2021/04/22 08:03:18;;;;;;;8.20;2.50;;;21.10;32.10;;;;;;5072517;28;20023;-69
2021/04/22 08:05:45;;;;;;;8.43;2.47;;;21.10;31.90;;;;;;5071828;28;20041;-69
2021/04/22 08:08:12;;;;;;;6.20;1.92;;;21.10;31.80;;;;;;5072091;28;20099;-69
2021/04/22 08:10:44;;;;;;;6.68;2.22;;;21.10;31.80;;;;;;5073208;28;20070;-70
2021/04/22 08:13:10;;;;;;;6.40;2.13;;;21.10;31.90;;;;;;5073337;28;20027;-70
2021/04/22 08:15:37;;;;;;;10.55;2.38;;;21.10;31.90;;;;;;5073218;28;20025;-69
2021/04/22 08:18:03;;;;;;;9.50;2.30;;;21.10;31.80;;;;;;5073343;28;20032;-69
2021/04/22 08:20:30;;;;;;;8.90;2.53;;;21.10;31.90;;;;;;5073212;28;20028;-69
2021/04/22 08:22:58;;;;;;;8.35;2.50;;;21.10;31.80;;;;;;5071746;28;20425;-69
2021/04/22 08:25:30;;;;;;;8.55;2.00;;;21.10;31.90;;;;;;5073077;28;20036;-69
2021/04/22 08:27:56;;;;;;;6.47;1.92;;;21.10;31.70;;;;;;5072846;28;20454;-69
2021/04/22 08:30:30;;;;;;;7.80;2.05;;;21.10;31.60;;;;;;5073177;28;20031;-69
2021/04/22 08:32:56;;;;;;;6.88;2.13;;;21.10;31.50;;;;;;5071831;28;20358;-69
2021/04/22 08:35:23;;;;;;;7.38;1.92;;;21.10;31.60;;;;;;5072794;28;20036;-66
2021/04/22 08:37:48;;;;;;;6.50;2.00;;;21.10;31.40;;;;;;5072827;28;20051;-66
2021/04/22 08:40:15;;;;;;;9.07;1.83;;;21.10;31.70;;;;;;5072866;28;20476;-69
2021/04/22 08:42:41;;;;;;;9.32;2.13;;;21.20;31.80;;;;;;5072932;28;20029;-69
2021/04/22 08:45:10;;;;;;;6.82;2.22;;;21.20;31.70;;;;;;5072811;28;20497;-67
2021/04/22 08:47:37;;;;;;;8.38;2.33;;;21.20;31.70;;;;;;5072898;28;20032;-68
2021/04/22 08:50:04;;;;;;;8.25;1.98;;;21.20;31.70;;;;;;5071190;28;20052;-68
2021/04/22 08:52:30;;;;;;;6.05;1.58;;;21.20;31.80;;;;;;5072570;28;20020;-66
2021/04/22 08:54:55;;;;;;;7.10;2.05;;;21.20;31.80;;;;;;5072517;28;20078;-67
2021/04/22 08:57:21;;;;;;;8.50;2.85;;;21.20;31.80;;;;;;5072751;28;20472;-68
2021/04/22 08:59:52;;;;;;;6.82;2.17;;;21.10;31.70;;;;;;5071358;28;20469;-68
2021/04/22 09:02:18;;;;;;;6.57;1.88;;;21.20;31.80;;;;;;5072723;28;20079;-68
2021/04/22 09:04:43;;;;;;;11.60;2.72;;;21.20;31.80;;;;;;5072567;28;20330;-69
2021/04/22 09:07:09;;;;;;;8.18;2.20;;;21.20;31.80;;;;;;5072345;28;20035;-68
2021/04/22 09:09:34;;;;;;;6.50;2.20;;;21.20;31.70;;;;;;5071233;28;20047;-68
2021/04/22 09:12:00;;;;;;;6.35;1.85;;;21.20;31.70;;;;;;5072551;28;20507;-68
2021/04/22 09:14:25;;;;;;;7.82;2.20;;;21.20;31.60;;;;;;5072739;28;20031;-68
2021/04/22 09:16:51;;;;;;;6.15;1.92;;;21.20;31.60;;;;;;5072545;28;20033;-68
2021/04/22 09:19:21;;;;;;;7.45;2.28;;;21.20;31.60;;;;;;5072559;28;20024;-69
2021/04/22 09:21:58;;;;;;;8.20;2.10;;;21.20;31.50;;;;;;5072258;28;20554;-68
2021/04/22 09:24:26;;;;;;;8.10;1.95;;;21.30;31.40;;;;;;5072655;28;20032;-68
2021/04/22 09:27:03;;;;;;;7.20;2.72;;;21.30;31.40;;;;;;5072365;28;20463;-68
2021/04/22 09:29:33;;;;;;;8.02;2.45;;;21.20;31.60;;;;;;5071100;28;20039;-69
2021/04/22 09:32:12;;;;;;;4.88;1.73;;;21.30;31.40;;;;;;5072272;28;20044;-68
2021/04/22 09:34:38;;;;;;;6.28;2.00;;;21.30;31.40;;;;;;5070958;28;20516;-69
2021/04/22 09:37:04;;;;;;;6.18;1.90;;;21.30;31.40;;;;;;5071547;28;20021;-68
2021/04/22 09:39:31;;;;;;;7.97;2.03;;;21.30;31.40;;;;;;5072549;28;20130;-69
2021/04/22 09:41:59;;;;;;;7.70;2.03;;;21.30;31.40;;;;;;5071234;28;20025;-69
2021/04/22 09:44:26;;;;;;;8.93;2.10;;;21.40;31.40;;;;;;5071242;28;20060;-69
2021/04/22 09:47:23;;;;;;;7.32;2.00;;;21.30;31.40;;;;;;5076923;28;20043;-69
2021/04/22 09:49:56;;;;;;;7.15;1.88;;;21.30;31.40;;;;;;5066437;28;20410;-69
2021/04/22 09:52:22;;;;;;;4.87;1.87;;;21.30;31.40;;;;;;5078015;28;20054;-68
2021/04/22 09:54:51;;;;;;;5.22;1.67;;;21.40;31.40;;;;;;5077627;28;20263;-68
2021/04/22 09:57:28;;;;;;;5.63;1.90;;;21.40;31.30;;;;;;5077278;28;20033;-68
2021/04/22 09:59:55;;;;;;;6.60;1.88;;;21.30;31.20;;;;;;5077487;28;20017;-68
2021/04/22 10:02:22;;;;;;;6.78;2.13;;;21.40;31.30;;;;;;5077211;28;20028;-68
2021/04/22 10:04:50;;;;;;;6.13;2.20;;;21.30;31.20;;;;;;5077107;28;20024;-68
2021/04/22 10:07:23;;;;;;;5.85;2.10;;;21.40;31.40;;;;;;5076886;28;20039;-68
2021/04/22 10:09:56;;;;;;;4.70;1.52;;;21.40;31.20;;;;;;5076839;28;20028;-68
2021/04/22 10:12:33;;;;;;;7.22;1.80;;;21.40;31.30;;;;;;5077359;28;20028;-69
2021/04/22 10:15:10;;;;;;;6.90;1.77;;;21.40;31.10;;;;;;5076650;28;20024;-69
2021/04/22 10:17:36;;;;;;;5.63;1.63;;;21.40;31.30;;;;;;5076503;28;20484;-69
2021/04/22 10:20:12;;;;;;;8.38;2.03;;;21.40;31.20;;;;;;5076616;28;20150;-68
2021/04/22 10:22:40;;;;;;;5.55;1.60;;;21.50;31.10;;;;;;5076151;28;20040;-68
2021/04/22 10:25:20;;;;;;;5.55;1.73;;;21.50;31.20;;;;;;5076135;28;20048;-68
2021/04/22 10:27:46;;;;;;;6.28;1.80;;;21.50;31.10;;;;;;5075189;28;20078;-68
2021/04/22 10:30:17;;;;;;;5.97;1.77;;;21.50;31.10;;;;;;5076648;28;20160;-69
2021/04/22 10:32:44;;;;;;;7.35;1.90;;;21.50;31.00;;;;;;5076022;28;20514;-68
2021/04/22 10:35:13;;;;;;;6.53;1.73;;;21.50;31.10;;;;;;5074984;28;20115;-68
2021/04/22 10:37:43;;;;;;;6.82;2.05;;;21.50;31.10;;;;;;5075904;28;20074;-68
2021/04/22 10:40:11;;;;;;;7.65;2.22;;;21.50;31.10;;;;;;5076314;28;20418;-67
2021/04/22 10:42:38;;;;;;;4.97;1.85;;;21.60;31.00;;;;;;5076215;28;20495;-68
2021/04/22 10:45:08;;;;;;;5.97;2.10;;;21.60;31.00;;;;;;5074587;28;20029;-68
2021/04/22 10:47:34;;;;;;;6.25;1.90;;;21.60;31.00;;;;;;5075787;28;20039;-69
2021/04/22 10:50:00;;;;;;;4.72;1.63;;;21.60;30.90;;;;;;5075910;28;20031;-68
2021/04/22 10:52:26;;;;;;;6.70;2.00;;;21.70;31.00;;;;;;5075326;28;20037;-68
2021/04/22 10:54:53;;;;;;;5.32;1.45;;;21.70;30.90;;;;;;5075487;28;20016;-68
2021/04/22 10:57:21;;;;;;;7.85;1.98;;;21.70;31.00;;;;;;5074369;28;20392;-68
2021/04/22 10:59:48;;;;;;;4.72;1.42;;;21.70;30.80;;;;;;5075343;28;20013;-68
2021/04/22 11:02:17;;;;;;;8.65;1.90;;;21.70;30.90;;;;;;5075696;28;20021;-68
2021/04/22 11:04:44;;;;;;;5.65;1.80;;;21.70;30.90;;;;;;5075691;28;20035;-69
2021/04/22 11:07:20;;;;;;;6.07;1.90;;;21.70;30.90;;;;;;5074336;28;20036;-69
2021/04/22 11:09:50;;;;;;;5.05;1.67;;;21.70;30.90;;;;;;5075515;28;20021;-69
2021/04/22 11:12:25;;;;;;;6.80;1.70;;;21.80;30.90;;;;;;5074024;28;20051;-66
2021/04/22 11:14:52;;;;;;;5.20;1.60;;;21.80;30.60;;;;;;5073791;28;20017;-68
2021/04/22 11:17:20;;;;;;;6.57;1.88;;;21.80;30.80;;;;;;5074668;28;20036;-68
2021/04/22 11:19:48;;;;;;;8.52;1.83;;;21.80;30.80;;;;;;5074636;28;20060;-67
2021/04/22 11:22:25;;;;;;;6.68;1.90;;;21.80;30.70;;;;;;5074138;28;20124;-66
2021/04/22 11:24:57;;;;;;;6.00;1.98;;;21.80;30.80;;;;;;5073925;28;20035;-67
2021/04/22 11:27:25;;;;;;;5.68;1.67;;;21.80;30.80;;;;;;5074444;28;20033;-67
2021/04/22 11:29:57;;;;;;;8.18;1.80;;;21.90;30.70;;;;;;5074674;28;20032;-68
2021/04/22 11:32:28;;;;;;;4.68;1.50;;;21.90;30.80;;;;;;5074663;28;20028;-69
2021/04/22 11:35:05;;;;;;;9.43;2.20;;;22.00;30.60;;;;;;5074064;28;20017;-69
2021/04/22 11:37:41;;;;;;;5.78;2.03;;;22.00;30.60;;;;;;5075210;28;20024;-69
2021/04/22 11:40:14;;;;;;;6.20;1.90;;;22.00;30.60;;;;;;5075048;28;20016;-69
2021/04/22 11:42:44;;;;;;;5.47;1.40;;;22.00;30.60;;;;;;5072847;28;20050;-69
2021/04/22 11:45:12;;;;;;;8.98;2.33;;;22.00;30.50;;;;;;5070394;28;20314;-68
2021/04/22 11:47:48;;;;;;;7.45;1.85;;;22.10;30.50;;;;;;5072079;28;20033;-67
2021/04/22 11:50:16;;;;;;;6.40;1.83;;;22.10;30.40;;;;;;5072640;28;20155;-68
2021/04/22 11:52:47;;;;;;;5.05;1.27;;;22.10;30.40;;;;;;5073643;28;20598;-68
2021/04/22 11:55:36;;;;;;;8.20;1.70;;;22.10;30.50;;;;;;5074112;28;20040;-68
2021/04/22 11:58:09;;;;;;;5.75;1.70;;;22.20;30.50;;;;;;5073574;28;20028;-67
2021/04/22 12:00:50;;;;;;;5.67;1.63;;;22.20;30.30;;;;;;5074138;28;20174;-67
2021/04/22 12:03:32;;;;;;;9.25;2.00;;;22.30;30.40;;;;;;5073888;28;20048;-69
2021/04/22 12:06:00;;;;;;;4.53;1.40;;;22.30;30.40;;;;;;5072889;28;20044;-69
2021/04/22 12:08:28;;;;;;;5.55;1.67;;;22.40;30.30;;;;;;5088147;28;20384;-69
2021/04/22 12:10:53;;;;;;;4.30;1.30;;;22.40;30.20;;;;;;5072939;28;20486;-69
2021/04/22 12:13:21;;;;;;;5.70;1.30;;;22.30;30.30;;;;;;5073562;28;20056;-68
2021/04/22 12:15:53;;;;;;;5.32;1.60;;;22.40;30.20;;;;;;5072559;28;20095;-69
2021/04/22 12:18:26;;;;;;;4.07;1.55;;;22.50;30.10;;;;;;5074902;28;20077;-69
2021/04/22 12:20:54;;;;;;;5.18;1.50;;;22.50;30.30;;;;;;5074102;28;20126;-68
2021/04/22 12:23:29;;;;;;;5.72;1.40;;;22.40;30.10;;;;;;5073047;28;20044;-70
2021/04/22 12:25:55;;;;;;;5.90;2.30;;;22.50;30.20;;;;;;5072617;28;20036;-70
2021/04/22 12:28:21;;;;;;;5.47;1.85;;;22.60;30.10;;;;;;5073173;28;20064;-70
2021/04/22 12:30:48;;;;;;;5.78;1.38;;;22.60;30.10;;;;;;5072352;28;20579;-70
2021/04/22 12:33:22;;;;;;;8.23;2.20;;;22.50;29.90;;;;;;5073077;28;20033;-67
2021/04/22 12:35:59;;;;;;;5.50;1.73;;;22.60;30.00;;;;;;5072693;28;20058;-67
2021/04/22 12:38:30;;;;;;;5.00;1.58;;;22.60;29.90;;;;;;5073481;28;20032;-68
2021/04/22 12:41:03;;;;;;;7.28;1.65;;;22.70;30.00;;;;;;5072552;28;20025;-68
2021/04/22 12:43:31;;;;;;;6.32;1.55;;;22.70;29.90;;;;;;5072610;28;20488;-69
2021/04/22 12:46:06;;;;;;;6.82;1.90;;;22.80;29.90;;;;;;5072608;28;20124;-67